sensor_id;sensor_type;location;lat;lon;timestamp;pressure;altitude;pressure_sealevel;temperature;humidity
8059;BME280;75058;42.668;23.396;2024-01-16T00:02:29;93680.88;;;2.26;57.59
8059;BME280;75058;42.668;23.396;2024-01-16T00:04:58;93659.47;;;2.19;59.51
8059;BME280;75058;42.668;23.396;2024-01-16T00:07:27;93668.94;;;1.94;58.90
8059;BME280;75058;42.668;23.396;2024-01-16T00:09:55;93705.81;;;2.70;58.62
8059;BME280;75058;42.668;23.396;2024-01-16T00:12:23;93694.69;;;2.70;56.83
8059;BME280;75058;42.668;23.396;2024-01-16T00:14:51;93714.50;;;2.45;58.09
8059;BME280;75058;42.668;23.396;2024-01-16T00:17:20;93707.28;;;2.60;58.05
8059;BME280;75058;42.668;23.396;2024-01-16T00:19:50;93687.69;;;2.52;57.28
8059;BME280;75058;42.668;23.396;2024-01-16T00:22:18;93690.34;;;2.39;57.55
8059;BME280;75058;42.668;23.396;2024-01-16T00:24:48;93709.59;;;2.68;57.79
8059;BME280;75058;42.668;23.396;2024-01-16T00:27:16;93721.84;;;3.10;57.03
8059;BME280;75058;42.668;23.396;2024-01-16T00:29:44;93701.22;;;3.03;57.35
8059;BME280;75058;42.668;23.396;2024-01-16T00:32:12;93679.78;;;3.21;56.96
8059;BME280;75058;42.668;23.396;2024-01-16T00:34:43;93692.41;;;2.55;57.54
8059;BME280;75058;42.668;23.396;2024-01-16T00:37:11;93706.44;;;2.34;57.82
8059;BME280;75058;42.668;23.396;2024-01-16T00:39:39;93718.63;;;2.59;57.89
8059;BME280;75058;42.668;23.396;2024-01-16T00:42:08;93711.47;;;2.85;58.60
8059;BME280;75058;42.668;23.396;2024-01-16T00:44:36;93696.81;;;2.48;58.58
8059;BME280;75058;42.668;23.396;2024-01-16T00:47:05;93715.25;;;2.58;58.91
8059;BME280;75058;42.668;23.396;2024-01-16T00:49:33;93652.44;;;1.95;59.34
8059;BME280;75058;42.668;23.396;2024-01-16T00:52:04;93719.09;;;2.74;59.17
8059;BME280;75058;42.668;23.396;2024-01-16T00:54:33;93723.69;;;3.03;58.81
8059;BME280;75058;42.668;23.396;2024-01-16T00:57:01;93723.00;;;3.14;58.40
8059;BME280;75058;42.668;23.396;2024-01-16T00:59:31;93719.59;;;2.89;58.15
8059;BME280;75058;42.668;23.396;2024-01-16T01:01:59;93741.88;;;2.83;59.06
8059;BME280;75058;42.668;23.396;2024-01-16T01:04:27;93740.78;;;3.47;58.88
8059;BME280;75058;42.668;23.396;2024-01-16T01:06:55;93735.31;;;3.79;57.33
8059;BME280;75058;42.668;23.396;2024-01-16T01:09:23;93733.44;;;3.68;57.33
8059;BME280;75058;42.668;23.396;2024-01-16T01:11:51;93738.94;;;3.54;58.07
8059;BME280;75058;42.668;23.396;2024-01-16T01:14:20;93757.91;;;3.66;57.48
8059;BME280;75058;42.668;23.396;2024-01-16T01:16:50;93722.28;;;3.50;58.04
8059;BME280;75058;42.668;23.396;2024-01-16T01:19:18;93746.22;;;3.81;56.07
8059;BME280;75058;42.668;23.396;2024-01-16T01:21:47;93749.22;;;3.60;56.90
8059;BME280;75058;42.668;23.396;2024-01-16T01:24:16;93662.38;;;2.67;58.58
8059;BME280;75058;42.668;23.396;2024-01-16T01:26:44;93753.69;;;3.29;59.49
8059;BME280;75058;42.668;23.396;2024-01-16T01:29:12;93741.50;;;3.78;58.11
8059;BME280;75058;42.668;23.396;2024-01-16T01:31:40;93739.84;;;3.84;58.38
8059;BME280;75058;42.668;23.396;2024-01-16T01:34:10;93720.22;;;4.13;57.62
8059;BME280;75058;42.668;23.396;2024-01-16T01:36:39;93727.63;;;4.09;57.24
8059;BME280;75058;42.668;23.396;2024-01-16T01:39:07;93722.66;;;4.08;57.23
8059;BME280;75058;42.668;23.396;2024-01-16T01:41:35;93732.44;;;3.87;57.56
8059;BME280;75058;42.668;23.396;2024-01-16T01:44:03;93741.91;;;3.93;57.32
8059;BME280;75058;42.668;23.396;2024-01-16T01:46:32;93731.34;;;4.13;57.35
8059;BME280;75058;42.668;23.396;2024-01-16T01:49:01;93716.34;;;3.85;57.77
8059;BME280;75058;42.668;23.396;2024-01-16T01:51:31;93725.75;;;3.80;59.15
8059;BME280;75058;42.668;23.396;2024-01-16T01:53:59;93735.03;;;3.87;59.65
8059;BME280;75058;42.668;23.396;2024-01-16T01:56:28;93739.41;;;4.05;59.69
8059;BME280;75058;42.668;23.396;2024-01-16T01:58:57;93739.72;;;3.97;59.22
8059;BME280;75058;42.668;23.396;2024-01-16T02:01:28;93738.34;;;3.95;58.85
8059;BME280;75058;42.668;23.396;2024-01-16T02:03:57;93735.09;;;4.17;58.68
8059;BME280;75058;42.668;23.396;2024-01-16T02:06:27;93735.75;;;4.13;58.30
8059;BME280;75058;42.668;23.396;2024-01-16T02:08:57;93721.66;;;4.09;58.66
8059;BME280;75058;42.668;23.396;2024-01-16T02:11:25;93737.72;;;3.56;58.55
8059;BME280;75058;42.668;23.396;2024-01-16T02:13:53;93748.09;;;4.11;58.63
8059;BME280;75058;42.668;23.396;2024-01-16T02:16:22;93746.31;;;4.11;57.94
8059;BME280;75058;42.668;23.396;2024-01-16T02:18:51;93750.97;;;4.03;58.39
8059;BME280;75058;42.668;23.396;2024-01-16T02:21:21;93751.19;;;4.19;57.56
8059;BME280;75058;42.668;23.396;2024-01-16T02:23:54;93743.31;;;4.14;57.72
8059;BME280;75058;42.668;23.396;2024-01-16T02:26:24;93753.13;;;4.24;58.39
8059;BME280;75058;42.668;23.396;2024-01-16T02:28:52;93753.47;;;4.45;57.19
8059;BME280;75058;42.668;23.396;2024-01-16T02:31:20;93760.19;;;4.35;57.43
8059;BME280;75058;42.668;23.396;2024-01-16T02:33:48;93763.22;;;4.32;57.73
8059;BME280;75058;42.668;23.396;2024-01-16T02:36:16;93756.88;;;4.28;57.44
8059;BME280;75058;42.668;23.396;2024-01-16T02:38:44;93755.97;;;4.04;57.86
8059;BME280;75058;42.668;23.396;2024-01-16T02:41:15;93772.53;;;3.78;59.18
8059;BME280;75058;42.668;23.396;2024-01-16T02:43:44;93783.63;;;4.22;58.46
8059;BME280;75058;42.668;23.396;2024-01-16T02:46:12;93781.69;;;4.17;59.00
8059;BME280;75058;42.668;23.396;2024-01-16T02:48:40;93788.50;;;4.48;58.90
8059;BME280;75058;42.668;23.396;2024-01-16T02:51:09;93792.47;;;4.14;58.00
8059;BME280;75058;42.668;23.396;2024-01-16T02:53:38;93803.56;;;4.21;57.77
8059;BME280;75058;42.668;23.396;2024-01-16T02:56:07;93810.75;;;4.37;57.74
8059;BME280;75058;42.668;23.396;2024-01-16T02:58:37;93823.66;;;4.01;58.44
8059;BME280;75058;42.668;23.396;2024-01-16T03:01:05;93849.19;;;3.48;59.39
8059;BME280;75058;42.668;23.396;2024-01-16T03:03:34;93842.19;;;3.24;60.31
8059;BME280;75058;42.668;23.396;2024-01-16T03:06:02;93856.44;;;3.33;60.22
8059;BME280;75058;42.668;23.396;2024-01-16T03:08:30;93865.50;;;3.73;59.34
8059;BME280;75058;42.668;23.396;2024-01-16T03:10:58;93859.38;;;3.37;61.59
8059;BME280;75058;42.668;23.396;2024-01-16T03:13:26;93875.13;;;3.60;61.26
8059;BME280;75058;42.668;23.396;2024-01-16T03:15:56;93870.59;;;3.55;60.64
8059;BME280;75058;42.668;23.396;2024-01-16T03:18:24;93887.63;;;3.69;60.15
8059;BME280;75058;42.668;23.396;2024-01-16T03:20:53;93888.69;;;3.86;60.11
8059;BME280;75058;42.668;23.396;2024-01-16T03:23:22;93907.09;;;3.97;60.12
8059;BME280;75058;42.668;23.396;2024-01-16T03:25:50;93912.50;;;4.38;61.01
8059;BME280;75058;42.668;23.396;2024-01-16T03:28:18;93921.72;;;4.52;61.11
8059;BME280;75058;42.668;23.396;2024-01-16T03:30:47;93918.63;;;4.43;63.56
8059;BME280;75058;42.668;23.396;2024-01-16T03:33:17;93932.81;;;4.77;64.48
8059;BME280;75058;42.668;23.396;2024-01-16T03:35:45;93934.75;;;4.82;64.55
8059;BME280;75058;42.668;23.396;2024-01-16T03:38:14;93944.91;;;5.01;64.86
8059;BME280;75058;42.668;23.396;2024-01-16T03:40:42;93939.88;;;5.06;65.09
8059;BME280;75058;42.668;23.396;2024-01-16T03:43:10;93953.34;;;5.15;65.19
8059;BME280;75058;42.668;23.396;2024-01-16T03:45:38;93956.34;;;5.12;66.14
8059;BME280;75058;42.668;23.396;2024-01-16T03:48:07;93965.50;;;4.78;66.05
8059;BME280;75058;42.668;23.396;2024-01-16T03:50:37;93971.91;;;4.76;66.32
8059;BME280;75058;42.668;23.396;2024-01-16T03:53:05;93977.81;;;5.01;65.35
8059;BME280;75058;42.668;23.396;2024-01-16T03:55:33;93973.81;;;4.62;66.07
8059;BME280;75058;42.668;23.396;2024-01-16T03:58:01;93977.03;;;4.39;65.75
8059;BME280;75058;42.668;23.396;2024-01-16T04:00:29;93987.38;;;4.64;64.88
8059;BME280;75058;42.668;23.396;2024-01-16T04:02:57;93994.03;;;4.53;64.38
8059;BME280;75058;42.668;23.396;2024-01-16T04:05:26;94006.53;;;4.38;63.89
8059;BME280;75058;42.668;23.396;2024-01-16T04:07:56;94012.38;;;4.52;63.20
8059;BME280;75058;42.668;23.396;2024-01-16T04:10:24;94028.22;;;4.37;63.04
8059;BME280;75058;42.668;23.396;2024-01-16T04:12:52;94023.31;;;4.29;63.53
8059;BME280;75058;42.668;23.396;2024-01-16T04:15:21;94033.56;;;4.42;62.93
8059;BME280;75058;42.668;23.396;2024-01-16T04:17:51;94041.13;;;4.44;63.13
8059;BME280;75058;42.668;23.396;2024-01-16T04:20:19;94053.22;;;4.50;62.74
8059;BME280;75058;42.668;23.396;2024-01-16T04:22:49;94057.41;;;4.51;63.13
8059;BME280;75058;42.668;23.396;2024-01-16T04:25:20;94064.78;;;4.47;63.07
8059;BME280;75058;42.668;23.396;2024-01-16T04:27:48;94060.16;;;4.31;62.93
8059;BME280;75058;42.668;23.396;2024-01-16T04:30:17;94068.44;;;4.40;63.31
8059;BME280;75058;42.668;23.396;2024-01-16T04:32:48;94075.53;;;4.51;62.41
8059;BME280;75058;42.668;23.396;2024-01-16T04:35:16;94080.94;;;4.18;62.92
8059;BME280;75058;42.668;23.396;2024-01-16T04:37:44;94082.72;;;4.18;62.97
8059;BME280;75058;42.668;23.396;2024-01-16T04:40:12;94077.72;;;4.23;62.83
8059;BME280;75058;42.668;23.396;2024-01-16T04:42:43;94076.84;;;4.04;62.52
8059;BME280;75058;42.668;23.396;2024-01-16T04:45:12;94080.63;;;4.33;61.58
8059;BME280;75058;42.668;23.396;2024-01-16T04:47:40;94080.78;;;4.44;61.44
8059;BME280;75058;42.668;23.396;2024-01-16T04:50:09;94099.19;;;4.30;61.60
8059;BME280;75058;42.668;23.396;2024-01-16T04:52:37;94112.94;;;4.24;61.41
8059;BME280;75058;42.668;23.396;2024-01-16T04:55:05;94113.19;;;4.16;61.10
8059;BME280;75058;42.668;23.396;2024-01-16T04:57:34;94115.16;;;4.20;61.38
8059;BME280;75058;42.668;23.396;2024-01-16T05:00:07;94127.97;;;4.09;61.15
8059;BME280;75058;42.668;23.396;2024-01-16T05:02:35;94129.78;;;4.08;59.93
8059;BME280;75058;42.668;23.396;2024-01-16T05:05:05;94141.34;;;4.06;60.17
8059;BME280;75058;42.668;23.396;2024-01-16T05:07:34;94151.50;;;4.01;60.80
8059;BME280;75058;42.668;23.396;2024-01-16T05:10:03;94153.84;;;4.09;59.90
8059;BME280;75058;42.668;23.396;2024-01-16T05:12:31;94163.88;;;3.92;60.12
8059;BME280;75058;42.668;23.396;2024-01-16T05:14:58;94162.69;;;3.88;60.23
8059;BME280;75058;42.668;23.396;2024-01-16T05:17:28;94166.50;;;3.79;59.83
8059;BME280;75058;42.668;23.396;2024-01-16T05:19:56;94180.97;;;4.00;60.03
8059;BME280;75058;42.668;23.396;2024-01-16T05:22:24;94174.50;;;3.71;60.13
8059;BME280;75058;42.668;23.396;2024-01-16T05:24:52;94183.06;;;3.71;60.11
8059;BME280;75058;42.668;23.396;2024-01-16T05:27:23;94187.19;;;3.79;59.32
8059;BME280;75058;42.668;23.396;2024-01-16T05:29:51;94199.13;;;3.86;59.34
8059;BME280;75058;42.668;23.396;2024-01-16T05:32:20;94203.88;;;3.89;58.98
8059;BME280;75058;42.668;23.396;2024-01-16T05:34:49;94217.25;;;3.86;59.35
8059;BME280;75058;42.668;23.396;2024-01-16T05:37:17;94229.56;;;3.98;59.25
8059;BME280;75058;42.668;23.396;2024-01-16T05:39:45;94222.03;;;3.76;59.33
8059;BME280;75058;42.668;23.396;2024-01-16T05:42:14;94188.06;;;3.53;59.27
8059;BME280;75058;42.668;23.396;2024-01-16T05:44:42;94250.31;;;3.65;58.97
8059;BME280;75058;42.668;23.396;2024-01-16T05:47:11;94244.13;;;3.66;59.51
8059;BME280;75058;42.668;23.396;2024-01-16T05:49:39;94261.66;;;3.57;59.73
8059;BME280;75058;42.668;23.396;2024-01-16T05:52:10;94265.34;;;4.07;59.03
8059;BME280;75058;42.668;23.396;2024-01-16T05:54:38;94290.88;;;3.90;58.54
8059;BME280;75058;42.668;23.396;2024-01-16T05:57:06;94295.59;;;4.07;58.79
8059;BME280;75058;42.668;23.396;2024-01-16T05:59:34;94300.66;;;3.56;57.86
8059;BME280;75058;42.668;23.396;2024-01-16T06:02:03;94311.00;;;3.69;57.33
8059;BME280;75058;42.668;23.396;2024-01-16T06:04:32;94325.31;;;3.45;58.23
8059;BME280;75058;42.668;23.396;2024-01-16T06:07:00;94338.84;;;3.60;57.30
8059;BME280;75058;42.668;23.396;2024-01-16T06:09:29;94334.25;;;3.43;57.93
8059;BME280;75058;42.668;23.396;2024-01-16T06:11:59;94341.38;;;3.21;59.15
8059;BME280;75058;42.668;23.396;2024-01-16T06:14:27;94325.00;;;2.88;58.47
8059;BME280;75058;42.668;23.396;2024-01-16T06:16:55;94358.00;;;2.86;59.37
8059;BME280;75058;42.668;23.396;2024-01-16T06:19:23;94369.81;;;3.21;58.92
8059;BME280;75058;42.668;23.396;2024-01-16T06:21:52;94371.63;;;3.34;58.20
8059;BME280;75058;42.668;23.396;2024-01-16T06:24:20;94382.78;;;3.41;58.68
8059;BME280;75058;42.668;23.396;2024-01-16T06:26:49;94381.97;;;3.21;57.73
8059;BME280;75058;42.668;23.396;2024-01-16T06:29:18;94389.13;;;3.32;57.80
8059;BME280;75058;42.668;23.396;2024-01-16T06:31:57;94400.03;;;3.21;57.60
8059;BME280;75058;42.668;23.396;2024-01-16T06:34:25;94397.84;;;3.24;57.19
8059;BME280;75058;42.668;23.396;2024-01-16T06:36:53;94401.44;;;3.30;58.35
8059;BME280;75058;42.668;23.396;2024-01-16T06:39:21;94415.19;;;3.37;56.46
8059;BME280;75058;42.668;23.396;2024-01-16T06:41:51;94421.72;;;3.26;56.48
8059;BME280;75058;42.668;23.396;2024-01-16T06:44:19;94434.66;;;3.26;57.03
8059;BME280;75058;42.668;23.396;2024-01-16T06:46:47;94432.81;;;3.13;57.68
8059;BME280;75058;42.668;23.396;2024-01-16T06:49:15;94451.13;;;3.25;56.67
8059;BME280;75058;42.668;23.396;2024-01-16T06:51:43;94456.75;;;3.35;56.81
8059;BME280;75058;42.668;23.396;2024-01-16T06:54:11;94466.41;;;3.13;56.81
8059;BME280;75058;42.668;23.396;2024-01-16T06:56:39;94470.78;;;3.13;57.05
8059;BME280;75058;42.668;23.396;2024-01-16T06:59:08;94463.41;;;3.03;56.87
8059;BME280;75058;42.668;23.396;2024-01-16T07:01:38;94478.00;;;3.24;57.24
8059;BME280;75058;42.668;23.396;2024-01-16T07:04:07;94482.81;;;3.40;56.79
8059;BME280;75058;42.668;23.396;2024-01-16T07:06:35;94493.41;;;3.52;56.17
8059;BME280;75058;42.668;23.396;2024-01-16T07:09:03;94493.22;;;3.60;56.72
8059;BME280;75058;42.668;23.396;2024-01-16T07:11:33;94495.41;;;3.56;55.75
8059;BME280;75058;42.668;23.396;2024-01-16T07:14:01;94485.59;;;3.39;57.20
8059;BME280;75058;42.668;23.396;2024-01-16T07:16:31;94485.78;;;3.31;56.77
8059;BME280;75058;42.668;23.396;2024-01-16T07:19:02;94509.25;;;3.42;56.57
8059;BME280;75058;42.668;23.396;2024-01-16T07:21:31;94517.72;;;3.23;57.08
8059;BME280;75058;42.668;23.396;2024-01-16T07:24:00;94539.63;;;3.21;56.88
8059;BME280;75058;42.668;23.396;2024-01-16T07:26:29;94538.97;;;3.53;56.61
8059;BME280;75058;42.668;23.396;2024-01-16T07:28:57;94545.88;;;3.39;56.42
8059;BME280;75058;42.668;23.396;2024-01-16T07:31:25;94556.31;;;3.18;57.13
8059;BME280;75058;42.668;23.396;2024-01-16T07:33:55;94554.13;;;3.22;57.47
8059;BME280;75058;42.668;23.396;2024-01-16T07:36:23;94551.69;;;3.13;57.37
8059;BME280;75058;42.668;23.396;2024-01-16T07:38:53;94564.53;;;3.00;57.68
8059;BME280;75058;42.668;23.396;2024-01-16T07:41:21;94571.25;;;3.23;57.92
8059;BME280;75058;42.668;23.396;2024-01-16T07:43:51;94568.84;;;3.28;56.46
8059;BME280;75058;42.668;23.396;2024-01-16T07:46:19;94573.19;;;3.14;57.04
8059;BME280;75058;42.668;23.396;2024-01-16T07:48:49;94576.91;;;3.05;58.11
8059;BME280;75058;42.668;23.396;2024-01-16T07:51:19;94577.06;;;2.97;57.42
8059;BME280;75058;42.668;23.396;2024-01-16T07:53:47;94584.84;;;3.03;57.25
8059;BME280;75058;42.668;23.396;2024-01-16T07:56:16;94582.16;;;3.18;56.95
8059;BME280;75058;42.668;23.396;2024-01-16T07:58:43;94600.81;;;3.13;57.48
8059;BME280;75058;42.668;23.396;2024-01-16T08:01:11;94605.41;;;3.18;57.05
8059;BME280;75058;42.668;23.396;2024-01-16T08:03:40;94609.50;;;3.40;57.88
8059;BME280;75058;42.668;23.396;2024-01-16T08:06:08;94624.72;;;3.22;57.32
8059;BME280;75058;42.668;23.396;2024-01-16T08:08:38;94630.13;;;3.27;57.01
8059;BME280;75058;42.668;23.396;2024-01-16T08:11:06;94627.88;;;3.18;56.95
8059;BME280;75058;42.668;23.396;2024-01-16T08:13:35;94626.50;;;3.56;56.06
8059;BME280;75058;42.668;23.396;2024-01-16T08:16:03;94637.25;;;3.59;56.03
8059;BME280;75058;42.668;23.396;2024-01-16T08:18:34;94638.19;;;3.45;56.09
8059;BME280;75058;42.668;23.396;2024-01-16T08:21:04;94637.75;;;3.42;56.23
8059;BME280;75058;42.668;23.396;2024-01-16T08:23:34;94656.19;;;3.32;56.06
8059;BME280;75058;42.668;23.396;2024-01-16T08:26:04;94663.09;;;3.25;55.94
8059;BME280;75058;42.668;23.396;2024-01-16T08:28:32;94657.75;;;3.27;56.31
8059;BME280;75058;42.668;23.396;2024-01-16T08:31:01;94673.47;;;3.32;55.22
8059;BME280;75058;42.668;23.396;2024-01-16T08:33:29;94664.06;;;3.18;55.96
8059;BME280;75058;42.668;23.396;2024-01-16T08:36:08;94666.25;;;2.93;56.07
8059;BME280;75058;42.668;23.396;2024-01-16T08:38:37;94680.25;;;3.33;55.20
8059;BME280;75058;42.668;23.396;2024-01-16T08:41:06;94676.03;;;3.59;54.99
8059;BME280;75058;42.668;23.396;2024-01-16T08:43:35;94687.91;;;3.47;54.29
8059;BME280;75058;42.668;23.396;2024-01-16T08:46:03;94682.28;;;3.37;54.46
8059;BME280;75058;42.668;23.396;2024-01-16T08:48:31;94696.13;;;3.57;54.99
8059;BME280;75058;42.668;23.396;2024-01-16T08:50:59;94699.78;;;3.35;54.31
8059;BME280;75058;42.668;23.396;2024-01-16T08:53:30;94697.00;;;3.37;54.29
8059;BME280;75058;42.668;23.396;2024-01-16T08:56:00;94706.38;;;3.38;54.56
8059;BME280;75058;42.668;23.396;2024-01-16T08:58:30;94714.09;;;3.10;54.91
8059;BME280;75058;42.668;23.396;2024-01-16T09:01:03;94715.09;;;3.37;55.35
8059;BME280;75058;42.668;23.396;2024-01-16T09:03:32;94719.94;;;3.46;53.89
8059;BME280;75058;42.668;23.396;2024-01-16T09:06:00;94731.16;;;3.32;55.18
8059;BME280;75058;42.668;23.396;2024-01-16T09:08:30;94728.88;;;3.44;55.34
8059;BME280;75058;42.668;23.396;2024-01-16T09:10:58;94731.66;;;3.70;53.94
8059;BME280;75058;42.668;23.396;2024-01-16T09:13:26;94716.53;;;3.73;54.18
8059;BME280;75058;42.668;23.396;2024-01-16T09:15:56;94729.59;;;3.59;53.70
8059;BME280;75058;42.668;23.396;2024-01-16T09:18:24;94734.84;;;3.44;54.78
8059;BME280;75058;42.668;23.396;2024-01-16T09:20:52;94696.88;;;3.51;53.51
8059;BME280;75058;42.668;23.396;2024-01-16T09:23:22;94740.88;;;3.85;54.06
8059;BME280;75058;42.668;23.396;2024-01-16T09:25:51;94740.47;;;3.82;52.99
8059;BME280;75058;42.668;23.396;2024-01-16T09:28:19;94746.03;;;3.51;54.33
8059;BME280;75058;42.668;23.396;2024-01-16T09:30:47;94745.47;;;3.56;53.11
8059;BME280;75058;42.668;23.396;2024-01-16T09:33:17;94741.56;;;3.66;53.76
8059;BME280;75058;42.668;23.396;2024-01-16T09:35:45;94744.59;;;3.49;53.60
8059;BME280;75058;42.668;23.396;2024-01-16T09:38:14;94741.78;;;3.71;53.57
8059;BME280;75058;42.668;23.396;2024-01-16T09:40:43;94743.47;;;3.58;53.45
8059;BME280;75058;42.668;23.396;2024-01-16T09:43:12;94749.66;;;3.84;52.61
8059;BME280;75058;42.668;23.396;2024-01-16T09:45:41;94739.56;;;3.68;52.95
8059;BME280;75058;42.668;23.396;2024-01-16T09:48:10;94745.78;;;4.08;52.09
8059;BME280;75058;42.668;23.396;2024-01-16T09:50:41;94741.94;;;4.32;51.83
8059;BME280;75058;42.668;23.396;2024-01-16T09:53:09;94741.81;;;4.12;51.54
8059;BME280;75058;42.668;23.396;2024-01-16T09:55:38;94763.31;;;4.06;51.89
8059;BME280;75058;42.668;23.396;2024-01-16T09:58:07;94756.56;;;3.77;51.81
8059;BME280;75058;42.668;23.396;2024-01-16T10:00:39;94749.06;;;3.89;52.23
8059;BME280;75058;42.668;23.396;2024-01-16T10:03:08;94754.81;;;3.84;51.86
8059;BME280;75058;42.668;23.396;2024-01-16T10:05:40;94748.75;;;3.71;51.54
8059;BME280;75058;42.668;23.396;2024-01-16T10:08:11;94747.25;;;3.89;52.10
8059;BME280;75058;42.668;23.396;2024-01-16T10:10:39;94747.63;;;4.14;51.56
8059;BME280;75058;42.668;23.396;2024-01-16T10:13:16;94745.00;;;4.08;51.18
8059;BME280;75058;42.668;23.396;2024-01-16T10:15:49;94746.16;;;4.05;51.66
8059;BME280;75058;42.668;23.396;2024-01-16T10:18:23;94740.84;;;4.20;50.95
8059;BME280;75058;42.668;23.396;2024-01-16T10:20:53;94732.31;;;4.26;50.46
8059;BME280;75058;42.668;23.396;2024-01-16T10:23:23;94742.00;;;4.58;49.23
8059;BME280;75058;42.668;23.396;2024-01-16T10:26:08;94747.19;;;4.58;49.20
8059;BME280;75058;42.668;23.396;2024-01-16T10:28:39;94747.75;;;4.47;48.83
8059;BME280;75058;42.668;23.396;2024-01-16T10:31:08;94743.06;;;4.70;48.97
8059;BME280;75058;42.668;23.396;2024-01-16T10:33:37;94738.88;;;4.22;49.49
8059;BME280;75058;42.668;23.396;2024-01-16T10:36:12;94761.41;;;4.28;49.91
8059;BME280;75058;42.668;23.396;2024-01-16T10:38:44;94763.09;;;4.48;49.15
8059;BME280;75058;42.668;23.396;2024-01-16T10:41:14;94742.06;;;4.78;48.53
8059;BME280;75058;42.668;23.396;2024-01-16T10:43:44;94719.91;;;4.55;49.04
8059;BME280;75058;42.668;23.396;2024-01-16T10:46:13;94765.63;;;4.96;48.46
8059;BME280;75058;42.668;23.396;2024-01-16T10:48:43;94762.84;;;4.97;48.52
8059;BME280;75058;42.668;23.396;2024-01-16T10:51:15;94757.72;;;4.50;48.75
8059;BME280;75058;42.668;23.396;2024-01-16T10:53:44;94767.03;;;4.38;48.99
8059;BME280;75058;42.668;23.396;2024-01-16T10:56:13;94766.81;;;4.87;48.71
8059;BME280;75058;42.668;23.396;2024-01-16T10:58:42;94760.97;;;4.65;47.86
8059;BME280;75058;42.668;23.396;2024-01-16T11:01:14;94751.94;;;5.28;47.23
8059;BME280;75058;42.668;23.396;2024-01-16T11:03:46;94755.91;;;5.76;46.02
8059;BME280;75058;42.668;23.396;2024-01-16T11:06:17;94750.91;;;5.75;46.23
8059;BME280;75058;42.668;23.396;2024-01-16T11:08:46;94753.31;;;5.30;46.57
8059;BME280;75058;42.668;23.396;2024-01-16T11:11:15;94764.28;;;5.32;46.73
8059;BME280;75058;42.668;23.396;2024-01-16T11:13:46;94759.09;;;5.39;47.13
8059;BME280;75058;42.668;23.396;2024-01-16T11:16:14;94769.28;;;5.34;47.05
8059;BME280;75058;42.668;23.396;2024-01-16T11:18:42;94773.00;;;4.99;47.92
8059;BME280;75058;42.668;23.396;2024-01-16T11:21:12;94784.63;;;4.49;48.01
8059;BME280;75058;42.668;23.396;2024-01-16T11:23:47;94780.47;;;4.54;48.20
8059;BME280;75058;42.668;23.396;2024-01-16T11:26:26;94778.19;;;4.32;48.60
8059;BME280;75058;42.668;23.396;2024-01-16T11:28:55;94771.34;;;4.24;49.31
8059;BME280;75058;42.668;23.396;2024-01-16T11:31:30;94776.25;;;4.47;48.67
8059;BME280;75058;42.668;23.396;2024-01-16T11:33:59;94779.59;;;4.95;48.98
8059;BME280;75058;42.668;23.396;2024-01-16T11:36:49;94787.00;;;5.04;47.34
8059;BME280;75058;42.668;23.396;2024-01-16T11:39:21;94779.47;;;4.62;48.79
8059;BME280;75058;42.668;23.396;2024-01-16T11:41:54;94780.00;;;5.11;48.06
8059;BME280;75058;42.668;23.396;2024-01-16T11:44:42;94791.09;;;4.79;48.10
8059;BME280;75058;42.668;23.396;2024-01-16T11:47:15;94783.28;;;4.19;48.88
8059;BME280;75058;42.668;23.396;2024-01-16T11:49:44;94797.09;;;3.98;49.88
8059;BME280;75058;42.668;23.396;2024-01-16T11:52:12;94794.63;;;4.18;48.32
8059;BME280;75058;42.668;23.396;2024-01-16T11:54:42;94782.44;;;3.77;49.71
8059;BME280;75058;42.668;23.396;2024-01-16T11:57:34;94801.31;;;4.06;50.70
8059;BME280;75058;42.668;23.396;2024-01-16T12:00:05;94775.78;;;3.68;49.90
8059;BME280;75058;42.668;23.396;2024-01-16T12:02:49;94804.94;;;3.56;51.20
8059;BME280;75058;42.668;23.396;2024-01-16T12:05:17;94788.59;;;4.04;51.40
8059;BME280;75058;42.668;23.396;2024-01-16T12:07:46;94794.66;;;4.65;48.76
8059;BME280;75058;42.668;23.396;2024-01-16T12:10:18;94801.00;;;4.62;48.42
8059;BME280;75058;42.668;23.396;2024-01-16T12:12:48;94809.69;;;4.42;48.95
8059;BME280;75058;42.668;23.396;2024-01-16T12:15:17;94818.47;;;4.47;48.95
8059;BME280;75058;42.668;23.396;2024-01-16T12:17:52;94826.00;;;4.77;49.57
8059;BME280;75058;42.668;23.396;2024-01-16T12:20:20;94828.75;;;4.34;49.70
8059;BME280;75058;42.668;23.396;2024-01-16T12:22:56;94818.16;;;4.23;49.86
8059;BME280;75058;42.668;23.396;2024-01-16T12:25:27;94820.50;;;4.18;50.04
8059;BME280;75058;42.668;23.396;2024-01-16T12:28:15;94811.19;;;4.64;49.65
8059;BME280;75058;42.668;23.396;2024-01-16T12:30:59;94824.16;;;4.23;50.34
8059;BME280;75058;42.668;23.396;2024-01-16T12:33:28;94831.59;;;4.05;50.05
8059;BME280;75058;42.668;23.396;2024-01-16T12:36:02;94831.50;;;4.26;50.30
8059;BME280;75058;42.668;23.396;2024-01-16T12:38:32;94834.66;;;4.22;49.50
8059;BME280;75058;42.668;23.396;2024-01-16T12:41:05;94826.66;;;3.82;50.07
8059;BME280;75058;42.668;23.396;2024-01-16T12:43:35;94835.84;;;3.64;50.02
8059;BME280;75058;42.668;23.396;2024-01-16T12:46:03;94840.75;;;3.31;50.60
8059;BME280;75058;42.668;23.396;2024-01-16T12:48:33;94845.91;;;3.31;51.00
8059;BME280;75058;42.668;23.396;2024-01-16T12:51:02;94842.78;;;3.36;51.60
8059;BME280;75058;42.668;23.396;2024-01-16T12:53:32;94842.56;;;3.58;51.20
8059;BME280;75058;42.668;23.396;2024-01-16T12:56:05;94848.09;;;3.55;51.23
8059;BME280;75058;42.668;23.396;2024-01-16T12:58:35;94846.56;;;4.10;50.73
8059;BME280;75058;42.668;23.396;2024-01-16T13:01:24;94839.81;;;4.49;49.67
8059;BME280;75058;42.668;23.396;2024-01-16T13:03:55;94840.97;;;3.85;50.47
8059;BME280;75058;42.668;23.396;2024-01-16T13:06:23;94837.53;;;3.99;50.23
8059;BME280;75058;42.668;23.396;2024-01-16T13:09:05;94845.16;;;4.41;49.86
8059;BME280;75058;42.668;23.396;2024-01-16T13:11:48;94835.69;;;4.61;48.79
8059;BME280;75058;42.668;23.396;2024-01-16T13:14:17;94848.25;;;4.64;48.86
8059;BME280;75058;42.668;23.396;2024-01-16T13:16:48;94846.81;;;3.93;50.18
8059;BME280;75058;42.668;23.396;2024-01-16T13:19:17;94849.25;;;3.95;50.54
8059;BME280;75058;42.668;23.396;2024-01-16T13:21:46;94835.72;;;3.51;51.00
8059;BME280;75058;42.668;23.396;2024-01-16T13:24:14;94859.13;;;3.43;51.67